Time;durP1;ratioP1;P1;durP2;ratioP2;P2;SDS_P1;SDS_P2;PMS_P1;PMS_P2;Temp;Humidity;BMP_temperature;BMP_pressure;BME280_temperature;BME280_humidity;BME280_pressure;Samples;Min_cycle;Max_cycle;Signal;HPM_P1;HPM_P2
2023/07/22 00:01:14;;;;;;;13.32;8.40;;;13.80;99.90;;;;;;5091340;28;20530;-48
2023/07/22 00:03:40;;;;;;;13.23;8.65;;;13.80;99.90;;;;;;5073275;28;20043;-47
2023/07/22 00:06:08;;;;;;;13.45;8.63;;;13.70;99.90;;;;;;5072107;28;20051;-47
2023/07/22 00:08:35;;;;;;;15.57;9.10;;;13.70;99.90;;;;;;5081052;28;20163;-52
2023/07/22 00:11:00;;;;;;;14.50;8.43;;;13.70;99.90;;;;;;5071005;28;20087;-49
2023/07/22 00:13:26;;;;;;;15.52;9.40;;;13.30;99.90;;;;;;5089465;28;20059;-48
2023/07/22 00:15:56;;;;;;;14.82;8.98;;;13.60;99.90;;;;;;5073112;28;20103;-50
2023/07/22 00:18:23;;;;;;;14.65;9.18;;;13.60;99.90;;;;;;5070122;28;20039;-47
2023/07/22 00:20:50;;;;;;;13.52;8.60;;;13.60;99.90;;;;;;5074446;28;20506;-50
2023/07/22 00:23:16;;;;;;;14.25;8.68;;;13.60;99.90;;;;;;5070806;28;20392;-49
2023/07/22 00:25:42;;;;;;;15.60;8.93;;;13.50;99.90;;;;;;5071123;28;20037;-47
2023/07/22 00:28:07;;;;;;;13.88;9.02;;;13.60;99.90;;;;;;5070584;28;20082;-47
2023/07/22 00:30:34;;;;;;;12.82;8.85;;;13.50;99.90;;;;;;5069423;28;20041;-48
2023/07/22 00:33:00;;;;;;;13.88;9.52;;;13.50;99.90;;;;;;5070287;28;20437;-48
2023/07/22 00:35:26;;;;;;;16.40;5.47;;;13.50;99.90;;;;;;5070456;28;20041;-45
2023/07/22 00:37:52;;;;;;;15.95;9.55;;;13.40;99.90;;;;;;5071193;28;20530;-48
2023/07/22 00:40:19;;;;;;;13.93;9.52;;;13.50;99.90;;;;;;5070484;28;20037;-50
2023/07/22 00:42:44;;;;;;;13.60;9.18;;;13.50;99.90;;;;;;5091052;28;20112;-49
2023/07/22 00:45:10;;;;;;;13.55;9.13;;;13.50;99.90;;;;;;5089285;28;20090;-48
2023/07/22 00:47:36;;;;;;;17.73;9.40;;;13.50;99.90;;;;;;5071650;28;20100;-50
2023/07/22 00:50:04;;;;;;;18.15;9.50;;;13.50;99.90;;;;;;5087846;28;20058;-49
2023/07/22 00:52:29;;;;;;;14.30;9.32;;;13.50;99.90;;;;;;5090266;28;20047;-51
2023/07/22 00:54:56;;;;;;;14.82;8.88;;;13.60;99.90;;;;;;5068425;28;20044;-50
2023/07/22 00:57:22;;;;;;;15.60;9.20;;;13.60;99.90;;;;;;5070554;28;20040;-50
2023/07/22 00:59:48;;;;;;;14.95;10.13;;;13.60;99.90;;;;;;5069644;28;20048;-46
2023/07/22 01:02:14;;;;;;;17.08;10.18;;;13.70;99.90;;;;;;5070601;28;20041;-50
2023/07/22 01:04:40;;;;;;;17.58;10.15;;;13.70;99.90;;;;;;5070762;28;20486;-49
2023/07/22 01:07:07;;;;;;;16.00;10.23;;;13.70;99.90;;;;;;5070466;28;20495;-47
2023/07/22 01:09:43;;;;;;;14.90;10.07;;;13.80;99.90;;;;;;5070653;28;20044;-49
2023/07/22 01:12:09;;;;;;;15.45;5.95;;;13.80;99.90;;;;;;5070317;28;20029;-49
2023/07/22 01:14:40;;;;;;;15.40;9.98;;;13.80;99.90;;;;;;5090260;28;20044;-46
2023/07/22 01:17:08;;;;;;;15.85;9.75;;;13.80;99.90;;;;;;5069096;28;20113;-47
2023/07/22 01:19:34;;;;;;;15.52;9.57;;;13.80;99.90;;;;;;5070486;28;20040;-46
2023/07/22 01:22:02;;;;;;;14.02;6.38;;;13.80;99.90;;;;;;5070293;28;20079;-46
2023/07/22 01:24:28;;;;;;;16.55;9.73;;;13.80;99.90;;;;;;5070412;28;20043;-48
2023/07/22 01:26:54;;;;;;;17.60;10.10;;;13.90;99.90;;;;;;5070084;28;20034;-48
2023/07/22 01:29:24;;;;;;;16.67;10.85;;;13.90;99.90;;;;;;5070147;28;20123;-48
2023/07/22 01:31:54;;;;;;;16.05;9.85;;;13.90;99.90;;;;;;5070339;28;20106;-50
2023/07/22 01:34:21;;;;;;;16.10;6.88;;;14.00;99.90;;;;;;5089490;28;20507;-49
2023/07/22 01:36:48;;;;;;;16.30;10.57;;;13.90;99.90;;;;;;5090498;28;20082;-51
2023/07/22 01:39:14;;;;;;;18.00;11.13;;;13.90;99.90;;;;;;5075176;28;20093;-48
2023/07/22 01:41:40;;;;;;;16.25;10.02;;;14.00;99.90;;;;;;5071004;28;20083;-51
2023/07/22 01:44:07;;;;;;;18.40;7.22;;;14.00;99.90;;;;;;5073475;28;20542;-49
2023/07/22 01:46:33;;;;;;;15.82;10.48;;;14.00;99.90;;;;;;5073292;28;20153;-49
2023/07/22 01:48:59;;;;;;;16.52;10.50;;;14.00;99.90;;;;;;5073788;28;20021;-49
2023/07/22 01:51:25;;;;;;;17.58;11.05;;;14.00;99.90;;;;;;5073547;28;20071;-50
2023/07/22 01:53:51;;;;;;;14.88;10.73;;;14.00;99.90;;;;;;5073824;28;20056;-51
2023/07/22 01:56:16;;;;;;;17.17;11.15;;;14.00;99.90;;;;;;5073725;28;20433;-52
2023/07/22 01:58:42;;;;;;;18.35;11.07;;;13.90;99.90;;;;;;5073250;28;20047;-50
2023/07/22 02:01:08;;;;;;;14.15;10.30;;;14.00;99.90;;;;;;5073545;28;20074;-48
2023/07/22 02:03:34;;;;;;;16.02;11.73;;;14.00;99.90;;;;;;5073930;28;20392;-48
2023/07/22 02:06:04;;;;;;;16.55;7.05;;;14.00;99.90;;;;;;5073437;28;20032;-47
2023/07/22 02:08:29;;;;;;;17.80;11.45;;;13.90;99.90;;;;;;5092101;28;20097;-48
2023/07/22 02:11:03;;;;;;;19.90;11.73;;;13.90;99.90;;;;;;5093571;28;20118;-46
2023/07/22 02:13:33;;;;;;;18.00;11.73;;;14.00;99.90;;;;;;5093445;28;20071;-48
2023/07/22 02:16:00;;;;;;;17.38;12.27;;;13.90;99.90;;;;;;5093445;28;20043;-48
2023/07/22 02:18:25;;;;;;;19.08;12.63;;;13.90;99.90;;;;;;5093368;28;20063;-46
2023/07/22 02:20:51;;;;;;;20.08;12.70;;;13.90;99.90;;;;;;5093323;28;20074;-47
2023/07/22 02:23:18;;;;;;;19.08;12.30;;;13.90;99.90;;;;;;5085013;28;20044;-48
2023/07/22 02:25:44;;;;;;;19.63;12.90;;;13.80;99.90;;;;;;5073303;28;20480;-48
2023/07/22 02:28:10;;;;;;;20.67;12.75;;;13.90;99.90;;;;;;5072987;28;20089;-51
2023/07/22 02:30:37;;;;;;;20.20;13.32;;;13.80;99.90;;;;;;5090924;28;20090;-48
2023/07/22 02:33:05;;;;;;;19.58;12.43;;;13.90;99.90;;;;;;5092996;28;20040;-48
2023/07/22 02:35:31;;;;;;;20.75;13.50;;;13.90;99.90;;;;;;5093325;28;20043;-48
2023/07/22 02:37:56;;;;;;;18.58;8.63;;;13.90;99.90;;;;;;5091660;28;20028;-49
2023/07/22 02:40:22;;;;;;;20.15;12.85;;;13.90;99.90;;;;;;5074947;28;20471;-52
2023/07/22 02:42:48;;;;;;;20.08;13.52;;;13.80;99.90;;;;;;5072649;28;20479;-50
2023/07/22 02:45:13;;;;;;;20.40;13.60;;;13.90;99.90;;;;;;5072432;28;20450;-48
2023/07/22 02:47:39;;;;;;;21.77;9.43;;;13.90;99.90;;;;;;5072837;28;20055;-53
2023/07/22 02:50:08;;;;;;;22.52;12.93;;;13.90;99.90;;;;;;5072686;28;20496;-50
2023/07/22 02:52:34;;;;;;;18.67;13.15;;;13.90;99.90;;;;;;5072203;28;20107;-50
2023/07/22 02:55:13;;;;;;;18.92;14.00;;;13.90;99.90;;;;;;5072415;28;20127;-50
2023/07/22 02:57:40;;;;;;;19.75;13.07;;;13.90;99.90;;;;;;5072458;28;20083;-48
2023/07/22 03:00:13;;;;;;;21.30;14.07;;;13.90;99.90;;;;;;5070291;28;20083;-46
2023/07/22 03:02:40;;;;;;;21.58;13.57;;;13.90;99.90;;;;;;5072221;28;20040;-51
2023/07/22 03:05:10;;;;;;;21.00;14.00;;;14.00;99.90;;;;;;5090312;28;20036;-48
2023/07/22 03:07:37;;;;;;;22.35;13.98;;;14.00;99.90;;;;;;5084127;28;20041;-50
2023/07/22 03:10:06;;;;;;;20.73;8.63;;;14.00;99.90;;;;;;5070032;28;20111;-51
2023/07/22 03:12:33;;;;;;;20.55;13.85;;;13.90;99.90;;;;;;5071893;28;20028;-49
2023/07/22 03:14:58;;;;;;;21.63;13.52;;;14.00;99.90;;;;;;5072519;28;20441;-51
2023/07/22 03:17:24;;;;;;;19.77;13.15;;;14.00;99.90;;;;;;5072145;28;20033;-51
2023/07/22 03:19:50;;;;;;;20.15;13.50;;;14.00;99.90;;;;;;5072335;28;20044;-48
2023/07/22 03:22:17;;;;;;;23.23;14.45;;;14.00;99.90;;;;;;5071906;28;20113;-49
2023/07/22 03:24:44;;;;;;;21.33;13.40;;;13.90;99.90;;;;;;5072074;28;20040;-48
2023/07/22 03:27:10;;;;;;;18.23;8.23;;;14.00;99.90;;;;;;5071868;28;20032;-52
2023/07/22 03:29:36;;;;;;;21.15;13.45;;;14.00;99.90;;;;;;5071524;28;20049;-50
2023/07/22 03:32:01;;;;;;;22.42;14.50;;;14.00;99.90;;;;;;5090697;28;20039;-49
2023/07/22 03:34:27;;;;;;;23.17;14.07;;;14.00;99.90;;;;;;5092270;28;20040;-51
2023/07/22 03:36:53;;;;;;;24.30;14.98;;;14.00;99.90;;;;;;5083800;28;20458;-51
2023/07/22 03:39:20;;;;;;;23.13;14.65;;;14.00;99.90;;;;;;5071497;28;20036;-48
2023/07/22 03:41:46;;;;;;;21.02;13.43;;;14.00;99.90;;;;;;5070853;28;20040;-48
2023/07/22 03:44:12;;;;;;;22.05;9.00;;;13.90;99.90;;;;;;5071062;28;20044;-49
2023/07/22 03:46:38;;;;;;;23.85;15.38;;;14.00;99.90;;;;;;5070946;28;20063;-50
2023/07/22 03:49:04;;;;;;;24.60;15.02;;;14.00;99.90;;;;;;5071874;28;20090;-49
2023/07/22 03:51:30;;;;;;;27.52;16.95;;;13.90;99.90;;;;;;5071787;28;20040;-46
2023/07/22 03:53:55;;;;;;;27.73;16.50;;;14.00;99.90;;;;;;5069545;28;20071;-47
2023/07/22 03:56:23;;;;;;;27.50;17.02;;;14.00;99.90;;;;;;5077247;28;20032;-50
2023/07/22 03:58:49;;;;;;;24.98;16.30;;;13.90;99.90;;;;;;5070647;28;20495;-48
2023/07/22 04:01:15;;;;;;;23.75;16.58;;;13.90;99.90;;;;;;5071473;28;20087;-51
2023/07/22 04:03:41;;;;;;;25.60;17.02;;;13.90;99.90;;;;;;5070921;28;20471;-47
2023/07/22 04:06:06;;;;;;;23.15;9.88;;;13.90;99.90;;;;;;5070232;28;20491;-49
2023/07/22 04:08:32;;;;;;;26.33;17.55;;;13.90;99.90;;;;;;5071958;28;20047;-49
2023/07/22 04:10:58;;;;;;;26.85;16.90;;;13.90;99.90;;;;;;5091403;28;20089;-48
2023/07/22 04:13:25;;;;;;;24.23;16.73;;;13.90;99.90;;;;;;5091189;28;20035;-48
2023/07/22 04:15:51;;;;;;;26.48;17.42;;;13.90;99.90;;;;;;5091177;28;20079;-50
2023/07/22 04:18:17;;;;;;;25.75;17.08;;;13.90;99.90;;;;;;5091361;28;20125;-47
2023/07/22 04:20:44;;;;;;;25.65;16.45;;;14.00;99.90;;;;;;5091218;28;20288;-47
2023/07/22 04:23:10;;;;;;;28.65;17.67;;;13.90;99.90;;;;;;5091021;28;20097;-51
2023/07/22 04:25:40;;;;;;;24.98;16.58;;;13.90;99.90;;;;;;5090914;28;20059;-49
2023/07/22 04:28:05;;;;;;;26.15;17.15;;;13.90;99.90;;;;;;5076194;28;20040;-48
2023/07/22 04:30:31;;;;;;;28.27;10.75;;;14.00;99.90;;;;;;5070405;28;20118;-47
2023/07/22 04:32:57;;;;;;;21.20;10.05;;;13.90;99.90;;;;;;5070809;28;20387;-51
2023/07/22 04:35:23;;;;;;;25.08;16.75;;;13.90;99.90;;;;;;5069366;28;20051;-47
2023/07/22 04:37:48;;;;;;;28.17;17.63;;;13.90;99.90;;;;;;5069602;28;20035;-50
2023/07/22 04:40:16;;;;;;;24.67;16.70;;;14.00;99.90;;;;;;5068059;28;20533;-48
2023/07/22 04:42:42;;;;;;;26.20;16.05;;;13.90;99.90;;;;;;5069974;28;20037;-50
2023/07/22 04:45:12;;;;;;;26.90;15.88;;;14.00;99.90;;;;;;5076313;28;20048;-50
2023/07/22 04:47:38;;;;;;;26.60;16.42;;;13.90;99.90;;;;;;5074437;28;20076;-49
2023/07/22 04:50:09;;;;;;;23.45;16.20;;;13.90;99.90;;;;;;5088612;28;20113;-47
2023/07/22 04:52:35;;;;;;;24.30;15.55;;;13.90;99.90;;;;;;5090963;28;20079;-47
2023/07/22 04:55:06;;;;;;;26.10;16.42;;;13.90;99.90;;;;;;5090797;28;20048;-48
2023/07/22 04:57:32;;;;;;;27.00;15.93;;;13.90;99.90;;;;;;5090536;28;20032;-50
2023/07/22 04:59:57;;;;;;;23.77;15.77;;;13.90;99.90;;;;;;5071115;28;20044;-49
2023/07/22 05:02:23;;;;;;;24.90;16.20;;;14.00;99.90;;;;;;5087535;28;20028;-47
2023/07/22 05:04:49;;;;;;;26.45;16.63;;;14.00;99.90;;;;;;5090633;28;20170;-50
2023/07/22 05:07:14;;;;;;;25.13;15.70;;;14.00;99.90;;;;;;5090828;28;20047;-51
2023/07/22 05:09:40;;;;;;;26.38;16.08;;;14.00;99.90;;;;;;5089181;28;20047;-48
2023/07/22 05:12:06;;;;;;;27.30;16.58;;;14.00;99.90;;;;;;5090580;28;20043;-49
2023/07/22 05:14:31;;;;;;;21.77;10.68;;;14.00;99.90;;;;;;5089170;28;20036;-51
2023/07/22 05:16:57;;;;;;;24.33;15.85;;;14.10;99.90;;;;;;5093647;28;20081;-50
2023/07/22 05:19:23;;;;;;;24.25;16.02;;;14.10;99.90;;;;;;5080457;28;20051;-48
2023/07/22 05:21:48;;;;;;;23.38;15.57;;;14.00;99.90;;;;;;5074741;28;20036;-51
2023/07/22 05:24:14;;;;;;;26.42;11.07;;;14.10;99.90;;;;;;5070893;28;20131;-50
2023/07/22 05:26:40;;;;;;;23.95;15.52;;;14.00;99.90;;;;;;5074183;28;20072;-52
2023/07/22 05:29:07;;;;;;;26.63;17.13;;;14.10;99.90;;;;;;5073526;28;20484;-47
2023/07/22 05:31:32;;;;;;;26.52;17.00;;;14.00;99.90;;;;;;5074325;28;20094;-52
2023/07/22 05:33:58;;;;;;;28.25;17.50;;;14.00;99.90;;;;;;5074313;28;20044;-52
2023/07/22 05:36:24;;;;;;;30.73;17.75;;;14.00;99.90;;;;;;5073875;28;20033;-48
2023/07/22 05:38:49;;;;;;;27.50;17.52;;;14.00;99.90;;;;;;5090625;28;20040;-50
2023/07/22 05:41:16;;;;;;;29.15;18.83;;;14.10;99.90;;;;;;5072701;28;20126;-51
2023/07/22 05:43:42;;;;;;;28.70;18.58;;;14.00;99.90;;;;;;5073613;28;20479;-47
2023/07/22 05:46:07;;;;;;;32.05;18.92;;;14.10;99.90;;;;;;5073806;28;20048;-47
2023/07/22 05:48:33;;;;;;;30.75;19.98;;;14.10;99.90;;;;;;5073859;28;20365;-52
2023/07/22 05:50:59;;;;;;;29.98;11.55;;;14.10;99.90;;;;;;5073899;28;20097;-49
2023/07/22 05:53:25;;;;;;;33.60;19.73;;;14.00;99.90;;;;;;5070731;28;20368;-48
2023/07/22 05:55:50;;;;;;;29.85;13.80;;;14.00;99.90;;;;;;5070077;28;20085;-50
2023/07/22 05:58:17;;;;;;;33.80;20.65;;;14.10;99.90;;;;;;5072758;28;20044;-47
2023/07/22 06:00:43;;;;;;;31.73;20.25;;;14.10;99.90;;;;;;5073318;28;20048;-49
2023/07/22 06:03:09;;;;;;;31.02;12.63;;;14.00;99.90;;;;;;5072450;28;20402;-48
2023/07/22 06:05:34;;;;;;;35.72;22.25;;;14.00;99.90;;;;;;5071346;28;20055;-47
2023/07/22 06:08:00;;;;;;;36.45;22.48;;;14.10;99.90;;;;;;5078380;28;20040;-48
2023/07/22 06:10:26;;;;;;;36.53;21.48;;;14.00;99.90;;;;;;5089015;28;20125;-47
2023/07/22 06:12:51;;;;;;;35.25;22.08;;;14.00;99.90;;;;;;5083805;28;20498;-48
2023/07/22 06:15:17;;;;;;;34.60;22.02;;;14.10;99.90;;;;;;5078790;28;20040;-50
2023/07/22 06:17:43;;;;;;;35.40;22.38;;;14.20;99.90;;;;;;5086895;28;20121;-47
2023/07/22 06:20:09;;;;;;;38.33;22.83;;;14.20;99.90;;;;;;5085347;28;20029;-49
2023/07/22 06:22:35;;;;;;;36.83;23.10;;;14.30;99.90;;;;;;5085041;28;20106;-48
2023/07/22 06:25:01;;;;;;;42.20;25.20;;;14.30;99.90;;;;;;5088277;28;20467;-46
2023/07/22 06:27:26;;;;;;;37.88;23.48;;;14.50;99.90;;;;;;5085899;28;20788;-52
2023/07/22 06:29:52;;;;;;;37.92;22.88;;;14.50;99.90;;;;;;5087368;28;20398;-47
2023/07/22 06:32:18;;;;;;;39.50;23.55;;;14.50;99.90;;;;;;5085195;28;20074;-49
2023/07/22 06:34:44;;;;;;;37.35;24.20;;;14.50;99.90;;;;;;5088614;28;20545;-48
2023/07/22 06:37:09;;;;;;;35.20;23.08;;;14.70;99.90;;;;;;5084341;28;20070;-49
2023/07/22 06:39:35;;;;;;;39.53;24.38;;;14.70;99.90;;;;;;5088005;28;20035;-52
2023/07/22 06:42:01;;;;;;;39.58;24.65;;;14.70;99.90;;;;;;5085201;28;20506;-49
2023/07/22 06:44:26;;;;;;;46.45;17.90;;;14.90;99.90;;;;;;5086600;28;20449;-50
2023/07/22 06:46:52;;;;;;;38.13;24.10;;;14.90;99.90;;;;;;5085287;28;20047;-52
2023/07/22 06:49:18;;;;;;;40.53;17.55;;;14.90;99.90;;;;;;5078578;28;20076;-49
2023/07/22 06:51:43;;;;;;;39.65;24.00;;;15.00;99.90;;;;;;5066649;28;20032;-49
2023/07/22 06:54:09;;;;;;;40.08;24.58;;;15.10;99.90;;;;;;5066006;28;20450;-48
2023/07/22 06:56:34;;;;;;;34.53;22.85;;;15.10;99.90;;;;;;5066396;28;20036;-49
2023/07/22 06:59:00;;;;;;;34.33;23.02;;;15.20;99.90;;;;;;5068575;28;20090;-49
2023/07/22 07:01:26;;;;;;;32.45;21.95;;;15.10;99.90;;;;;;5068159;28;20355;-51
2023/07/22 07:03:51;;;;;;;38.40;16.80;;;15.20;99.90;;;;;;5068143;28;20068;-49
2023/07/22 07:06:17;;;;;;;33.20;20.55;;;15.10;99.90;;;;;;5099204;27;20048;-48
2023/07/22 07:08:43;;;;;;;37.42;16.10;;;15.20;99.90;;;;;;5067443;28;20073;-46
2023/07/22 07:11:08;;;;;;;32.45;21.23;;;15.20;99.90;;;;;;5067793;28;20125;-50
2023/07/22 07:13:34;;;;;;;32.33;20.50;;;15.40;99.90;;;;;;5100716;27;21895;-51
2023/07/22 07:16:21;;;;;;;33.70;21.67;;;15.40;99.90;;;;;;5067903;28;20086;-49
2023/07/22 07:18:47;;;;;;;30.23;20.30;;;15.40;99.90;;;;;;5067568;28;20033;-52
2023/07/22 07:21:12;;;;;;;30.95;15.23;;;15.60;99.90;;;;;;5067863;28;20541;-47
2023/07/22 07:23:38;;;;;;;32.50;15.10;;;15.50;99.90;;;;;;5067614;28;20035;-51
2023/07/22 07:26:04;;;;;;;28.30;17.75;;;15.60;99.90;;;;;;5066378;28;20139;-49
2023/07/22 07:28:29;;;;;;;23.75;16.17;;;15.60;99.90;;;;;;5067850;28;20064;-48
2023/07/22 07:30:55;;;;;;;26.20;17.63;;;15.70;99.90;;;;;;5064271;28;20041;-49
2023/07/22 07:33:21;;;;;;;25.08;16.13;;;15.80;99.90;;;;;;5052123;28;20036;-49
2023/07/22 07:35:47;;;;;;;22.95;16.15;;;15.70;99.90;;;;;;5068794;28;20094;-51
2023/07/22 07:38:13;;;;;;;23.95;12.65;;;15.70;99.90;;;;;;5067941;28;20121;-49
2023/07/22 07:40:39;;;;;;;23.92;16.77;;;15.80;99.90;;;;;;5069866;28;20032;-47
2023/07/22 07:43:04;;;;;;;27.02;13.55;;;15.80;99.90;;;;;;5065653;28;20051;-50
2023/07/22 07:45:30;;;;;;;25.58;16.42;;;15.90;99.90;;;;;;5068427;28;20522;-53
2023/07/22 07:47:56;;;;;;;25.63;16.88;;;15.90;99.90;;;;;;5070020;28;20036;-52
2023/07/22 07:50:21;;;;;;;24.95;17.15;;;15.90;99.90;;;;;;5072579;28;20119;-52
2023/07/22 07:52:47;;;;;;;27.50;12.75;;;16.00;99.90;;;;;;5075431;28;20028;-51
2023/07/22 07:55:13;;;;;;;26.17;16.20;;;16.00;99.90;;;;;;5072700;28;20527;-48
2023/07/22 07:57:39;;;;;;;23.92;12.80;;;16.10;99.90;;;;;;5075732;28;20076;-50
2023/07/22 08:00:07;;;;;;;23.67;15.65;;;16.10;99.90;;;;;;5071815;28;20557;-50
2023/07/22 08:02:33;;;;;;;25.95;12.18;;;16.00;99.90;;;;;;5071538;28;20048;-46
2023/07/22 08:04:58;;;;;;;25.55;12.35;;;16.10;99.90;;;;;;5070107;28;20560;-48
2023/07/22 08:07:24;;;;;;;23.92;15.20;;;16.00;99.90;;;;;;5066350;28;20450;-48
2023/07/22 08:09:50;;;;;;;24.45;11.52;;;16.10;99.90;;;;;;5069989;28;20373;-51
2023/07/22 08:12:16;;;;;;;27.80;16.08;;;16.10;99.90;;;;;;5069006;28;20040;-50
2023/07/22 08:14:42;;;;;;;27.08;12.63;;;16.20;99.90;;;;;;5061535;28;20074;-49
2023/07/22 08:17:07;;;;;;;26.90;11.85;;;16.00;99.90;;;;;;5064246;28;20097;-46
2023/07/22 08:19:33;;;;;;;27.67;16.25;;;16.00;99.90;;;;;;5069623;28;20177;-51
2023/07/22 08:21:59;;;;;;;27.73;18.42;;;16.00;99.90;;;;;;5068864;28;20041;-48
2023/07/22 08:24:25;;;;;;;26.25;12.77;;;15.90;99.90;;;;;;5069229;28;20049;-49
2023/07/22 08:26:50;;;;;;;29.55;18.67;;;16.00;99.90;;;;;;5069081;28;20655;-51
2023/07/22 08:29:16;;;;;;;32.88;20.17;;;16.00;99.90;;;;;;5068721;28;20040;-50
2023/07/22 08:31:42;;;;;;;30.70;14.20;;;16.00;99.90;;;;;;5068595;28;20037;-48
2023/07/22 08:34:07;;;;;;;33.03;20.50;;;16.00;99.90;;;;;;5068908;28;20131;-48
2023/07/22 08:36:33;;;;;;;32.28;19.98;;;16.00;99.90;;;;;;5068834;28;20507;-48
2023/07/22 08:38:58;;;;;;;35.95;15.80;;;16.10;99.90;;;;;;5067592;28;20391;-49
2023/07/22 08:41:25;;;;;;;34.33;21.73;;;16.30;99.90;;;;;;5068219;28;20526;-49
2023/07/22 08:43:51;;;;;;;33.60;21.02;;;16.50;99.90;;;;;;5068944;28;20127;-50
2023/07/22 08:46:20;;;;;;;32.88;14.95;;;16.60;99.90;;;;;;5067284;28;20049;-49
2023/07/22 08:48:53;;;;;;;33.65;20.58;;;16.70;99.90;;;;;;5068437;28;20402;-51
2023/07/22 08:51:19;;;;;;;27.52;18.35;;;16.70;99.90;;;;;;5068635;28;20491;-50
2023/07/22 08:53:46;;;;;;;28.48;18.13;;;16.80;99.90;;;;;;5068657;28;20048;-50
2023/07/22 08:56:12;;;;;;;28.20;18.98;;;16.70;99.90;;;;;;5069625;28;20077;-46
2023/07/22 08:58:39;;;;;;;27.30;18.63;;;17.00;99.90;;;;;;5068527;28;20072;-51
2023/07/22 09:01:05;;;;;;;26.55;13.93;;;17.00;99.90;;;;;;5066806;28;20054;-48
2023/07/22 09:03:32;;;;;;;26.20;17.90;;;17.30;99.90;;;;;;5066679;28;20128;-48
2023/07/22 09:05:58;;;;;;;27.33;17.75;;;17.20;99.90;;;;;;5071960;28;20039;-52
2023/07/22 09:08:24;;;;;;;25.25;13.55;;;17.30;99.90;;;;;;5064692;28;20090;-47
2023/07/22 09:10:50;;;;;;;24.08;16.33;;;17.40;99.90;;;;;;5069451;28;20040;-46
2023/07/22 09:13:20;;;;;;;26.27;17.52;;;17.50;99.90;;;;;;5067860;28;20553;-48
2023/07/22 09:15:47;;;;;;;23.48;15.95;;;17.60;99.90;;;;;;5068233;28;20472;-49
2023/07/22 09:18:14;;;;;;;25.88;17.17;;;17.60;99.90;;;;;;5067915;28;20040;-50
2023/07/22 09:20:41;;;;;;;22.65;14.93;;;17.70;99.90;;;;;;5067045;28;20043;-48
2023/07/22 09:23:07;;;;;;;21.42;11.75;;;17.90;99.90;;;;;;5068203;28;20039;-52
2023/07/22 09:25:33;;;;;;;21.75;13.73;;;17.80;99.90;;;;;;5063784;28;20127;-52
2023/07/22 09:28:02;;;;;;;20.58;10.95;;;17.80;99.90;;;;;;5068159;28;20040;-49
2023/07/22 09:30:38;;;;;;;19.02;13.48;;;17.70;99.90;;;;;;5066964;28;20032;-50
2023/07/22 09:33:06;;;;;;;20.33;14.30;;;17.60;99.90;;;;;;5066988;28;20516;-46
2023/07/22 09:35:45;;;;;;;20.08;13.88;;;17.50;99.90;;;;;;5068444;28;20032;-50
2023/07/22 09:38:11;;;;;;;21.83;14.32;;;17.50;99.90;;;;;;5067113;28;20460;-47
2023/07/22 09:40:40;;;;;;;22.45;14.38;;;17.40;99.90;;;;;;5068742;28;20039;-47
2023/07/22 09:43:08;;;;;;;23.10;12.23;;;17.40;99.90;;;;;;5067938;28;20038;-48
2023/07/22 09:45:35;;;;;;;21.67;13.90;;;17.40;99.90;;;;;;5067355;28;20045;-50
2023/07/22 09:48:01;;;;;;;22.30;15.38;;;17.40;99.90;;;;;;5066641;28;20068;-48
2023/07/22 09:50:27;;;;;;;22.58;11.80;;;17.50;99.90;;;;;;5068281;28;20455;-49
2023/07/22 09:52:55;;;;;;;20.05;13.77;;;17.50;99.90;;;;;;5067885;28;20101;-53
2023/07/22 09:55:23;;;;;;;24.60;14.77;;;17.60;99.90;;;;;;5070934;28;20041;-48
2023/07/22 09:58:09;;;;;;;21.50;13.65;;;17.70;99.90;;;;;;5067132;28;20499;-50
2023/07/22 10:00:35;;;;;;;19.73;12.32;;;17.70;99.90;;;;;;5066564;28;20048;-48
2023/07/22 10:03:04;;;;;;;18.40;10.50;;;17.70;99.90;;;;;;5069640;28;20078;-48
2023/07/22 10:05:34;;;;;;;19.50;12.45;;;17.80;99.90;;;;;;5070644;28;20052;-46
2023/07/22 10:08:00;;;;;;;19.40;11.13;;;17.80;99.90;;;;;;5071139;28;20036;-49
2023/07/22 10:10:34;;;;;;;16.05;12.10;;;17.80;99.90;;;;;;5071253;28;20043;-47
2023/07/22 10:13:00;;;;;;;15.48;10.95;;;17.90;99.90;;;;;;5071828;28;20600;-46
2023/07/22 10:15:29;;;;;;;16.33;10.52;;;17.90;99.90;;;;;;5072077;28;20039;-48
2023/07/22 10:17:56;;;;;;;15.35;9.30;;;17.90;99.90;;;;;;5071994;28;20455;-48
2023/07/22 10:20:23;;;;;;;13.80;7.70;;;17.90;99.90;;;;;;5072720;28;20104;-50
2023/07/22 10:22:50;;;;;;;12.07;7.68;;;17.90;99.90;;;;;;5072519;28;20090;-47
2023/07/22 10:25:17;;;;;;;14.77;8.30;;;17.80;99.90;;;;;;5072488;28;20127;-50
2023/07/22 10:27:44;;;;;;;12.85;6.90;;;17.80;99.90;;;;;;5072620;28;20115;-48
2023/07/22 10:30:12;;;;;;;11.88;7.72;;;17.70;99.90;;;;;;5072617;28;20445;-48
2023/07/22 10:32:39;;;;;;;14.95;7.88;;;17.60;99.90;;;;;;5073353;28;20103;-49
2023/07/22 10:35:09;;;;;;;12.70;7.78;;;17.60;99.90;;;;;;5073046;28;20043;-47
2023/07/22 10:37:36;;;;;;;15.07;7.97;;;17.50;99.90;;;;;;5072890;28;20036;-47
2023/07/22 10:40:24;;;;;;;13.60;8.80;;;17.40;99.90;;;;;;5090381;28;20032;-49
2023/07/22 10:42:58;;;;;;;17.02;10.32;;;17.20;99.90;;;;;;5083133;28;20054;-46
2023/07/22 10:45:29;;;;;;;17.30;11.93;;;17.00;99.90;;;;;;5092789;28;20091;-47
2023/07/22 10:48:07;;;;;;;16.25;11.93;;;16.80;99.90;;;;;;5092748;28;20044;-52
2023/07/22 10:50:48;;;;;;;20.00;13.88;;;16.60;99.90;;;;;;5092996;28;20040;-49
2023/07/22 10:53:23;;;;;;;22.60;15.93;;;16.40;99.90;;;;;;5071459;28;20033;-53
2023/07/22 10:56:12;;;;;;;20.67;15.45;;;16.20;99.90;;;;;;5073118;28;20451;-55
2023/07/22 10:58:47;;;;;;;20.63;16.10;;;16.30;99.90;;;;;;5073007;28;20115;-54
2023/07/22 11:01:30;;;;;;;20.77;15.00;;;16.10;99.90;;;;;;5072520;28;20036;-55
2023/07/22 11:04:17;;;;;;;23.58;17.42;;;16.10;99.90;;;;;;5071960;28;20087;-53
2023/07/22 11:06:48;;;;;;;20.20;15.95;;;16.20;99.90;;;;;;5072274;28;20166;-53
2023/07/22 11:09:33;;;;;;;21.08;15.70;;;16.40;99.90;;;;;;5072105;28;20032;-53
2023/07/22 11:12:15;;;;;;;16.88;14.70;;;16.30;99.90;;;;;;5072386;28;20040;-53
2023/07/22 11:14:50;;;;;;;21.38;16.98;;;16.50;99.90;;;;;;5071631;28;20085;-53
2023/07/22 11:17:17;;;;;;;20.58;16.25;;;16.40;99.90;;;;;;5072731;28;20495;-50
2023/07/22 11:19:43;;;;;;;22.35;17.50;;;16.60;99.90;;;;;;5072287;28;20048;-53
2023/07/22 11:22:10;;;;;;;17.42;15.27;;;16.60;99.90;;;;;;5072292;28;20083;-47
2023/07/22 11:24:37;;;;;;;24.45;18.20;;;16.60;99.90;;;;;;5072475;28;20143;-53
2023/07/22 11:27:08;;;;;;;23.73;14.35;;;16.60;99.90;;;;;;5072676;28;20036;-52
2023/07/22 11:29:34;;;;;;;19.55;16.30;;;16.80;99.90;;;;;;5071323;28;20051;-52
2023/07/22 11:32:00;;;;;;;20.55;18.15;;;16.70;99.90;;;;;;5071353;28;20036;-53
2023/07/22 11:34:26;;;;;;;22.15;19.50;;;16.90;99.90;;;;;;5071458;28;20089;-50
2023/07/22 11:36:54;;;;;;;20.33;18.25;;;16.90;99.90;;;;;;5074879;28;20028;-51
2023/07/22 11:39:21;;;;;;;17.80;15.98;;;16.80;99.90;;;;;;5077749;28;20391;-49
2023/07/22 11:41:48;;;;;;;15.15;11.85;;;16.90;99.90;;;;;;5071964;28;20043;-51
2023/07/22 11:44:17;;;;;;;14.45;12.95;;;16.80;99.90;;;;;;5071931;28;20491;-55
2023/07/22 11:46:59;;;;;;;15.02;12.50;;;16.70;99.90;;;;;;5071689;28;20056;-47
2023/07/22 11:49:29;;;;;;;12.85;11.50;;;16.70;99.90;;;;;;5071839;28;20060;-48
2023/07/22 11:52:00;;;;;;;12.38;9.45;;;16.70;99.90;;;;;;5071723;28;20040;-50
2023/07/22 11:54:27;;;;;;;13.25;11.95;;;16.60;99.90;;;;;;5071574;28;20072;-47
2023/07/22 11:56:54;;;;;;;13.95;12.55;;;16.50;99.90;;;;;;5071839;28;20516;-49
2023/07/22 11:59:52;;;;;;;14.35;12.88;;;16.40;99.90;;;;;;5088563;28;20036;-52
2023/07/22 12:02:24;;;;;;;12.18;10.20;;;16.30;99.90;;;;;;5091466;28;20066;-51
2023/07/22 12:05:06;;;;;;;11.23;10.10;;;16.20;99.90;;;;;;5091538;28;20074;-53
2023/07/22 12:07:33;;;;;;;10.45;8.93;;;16.20;99.90;;;;;;5075654;28;20093;-49
2023/07/22 12:10:01;;;;;;;10.43;8.27;;;16.10;99.90;;;;;;5070972;28;20059;-49
2023/07/22 12:12:45;;;;;;;11.23;9.13;;;16.10;99.90;;;;;;5071566;28;20483;-50
2023/07/22 12:15:18;;;;;;;10.60;7.05;;;16.20;99.90;;;;;;5071414;28;20399;-46
2023/07/22 12:17:48;;;;;;;8.00;6.63;;;16.10;99.90;;;;;;5071264;28;20469;-50
2023/07/22 12:20:15;;;;;;;11.23;7.07;;;16.20;99.90;;;;;;5071555;28;20037;-51
2023/07/22 12:22:41;;;;;;;9.82;7.32;;;16.30;99.90;;;;;;5071058;28;20033;-49
2023/07/22 12:25:07;;;;;;;11.48;8.00;;;16.30;99.90;;;;;;5070105;28;20033;-50
2023/07/22 12:27:33;;;;;;;8.93;6.57;;;16.30;99.90;;;;;;5070963;28;20047;-48
2023/07/22 12:29:59;;;;;;;7.45;5.70;;;16.30;99.90;;;;;;5070725;28;20047;-50